Time;durP1;ratioP1;P1;durP2;ratioP2;P2;SDS_P1;SDS_P2;PMS_P1;PMS_P2;Temp;Humidity;BMP_temperature;BMP_pressure;BME280_temperature;BME280_humidity;BME280_pressure;Samples;Min_cycle;Max_cycle;Signal;HPM_P1;HPM_P2
2022/12/13 00:01:52;;;;;;;44.45;24.60;;;-4.10;99.90;;;;;;7371711;19;20014;-50
2022/12/13 00:04:22;;;;;;;41.58;23.45;;;-4.20;99.90;;;;;;7367481;19;20026;-46
2022/12/13 00:06:52;;;;;;;42.58;22.80;;;-4.20;99.90;;;;;;7372554;19;20085;-47
2022/12/13 00:09:19;;;;;;;42.05;23.23;;;-4.20;99.90;;;;;;7368913;19;20022;-46
2022/12/13 00:11:47;;;;;;;47.28;24.30;;;-4.20;99.90;;;;;;7375341;19;20389;-48
2022/12/13 00:14:14;;;;;;;47.33;26.17;;;-4.20;99.90;;;;;;7367307;19;20043;-47
2022/12/13 00:16:44;;;;;;;47.17;24.92;;;-4.20;99.90;;;;;;7375763;19;20019;-46
2022/12/13 00:19:11;;;;;;;41.67;24.90;;;-4.20;99.90;;;;;;7365513;19;20622;-45
2022/12/13 00:21:38;;;;;;;49.40;24.70;;;-4.20;99.90;;;;;;7372804;19;20010;-50
2022/12/13 00:24:06;;;;;;;46.42;24.77;;;-4.20;99.90;;;;;;7364740;19;20482;-45
2022/12/13 00:26:34;;;;;;;38.20;23.15;;;-4.20;99.90;;;;;;7373445;19;20536;-48
2022/12/13 00:29:05;;;;;;;44.13;25.15;;;-4.20;99.90;;;;;;7364667;19;20026;-44
2022/12/13 00:31:32;;;;;;;46.80;24.98;;;-4.30;99.90;;;;;;7373968;19;20551;-45
2022/12/13 00:33:59;;;;;;;39.33;22.48;;;-4.30;99.90;;;;;;7367163;19;20022;-46
2022/12/13 00:36:26;;;;;;;37.35;21.20;;;-4.40;99.90;;;;;;7368025;19;20026;-44
2022/12/13 00:39:01;;;;;;;42.60;23.13;;;-4.30;99.90;;;;;;7360043;19;20491;-46
2022/12/13 00:41:34;;;;;;;46.53;24.85;;;-4.30;99.90;;;;;;7359863;19;20022;-45
2022/12/13 00:44:02;;;;;;;46.92;24.80;;;-4.30;99.90;;;;;;7358024;19;20023;-48
2022/12/13 00:46:29;;;;;;;45.35;26.48;;;-4.30;99.90;;;;;;7366618;19;20518;-45
2022/12/13 00:48:58;;;;;;;48.95;25.45;;;-4.30;99.90;;;;;;7367663;19;20090;-49
2022/12/13 00:51:26;;;;;;;42.08;24.60;;;-4.30;99.90;;;;;;7372274;19;20434;-48
2022/12/13 00:53:53;;;;;;;43.33;25.55;;;-4.40;99.90;;;;;;7371083;19;20014;-44
2022/12/13 00:56:22;;;;;;;42.92;22.83;;;-4.40;99.90;;;;;;7379695;19;20046;-45
2022/12/13 00:58:49;;;;;;;41.15;24.02;;;-4.40;99.90;;;;;;7376823;19;20036;-49
2022/12/13 01:01:17;;;;;;;40.10;23.73;;;-4.50;99.90;;;;;;7376170;19;20038;-48
2022/12/13 01:03:44;;;;;;;42.13;24.65;;;-4.40;99.90;;;;;;7379360;19;20518;-48
2022/12/13 01:06:17;;;;;;;37.53;24.40;;;-4.40;99.90;;;;;;7367059;19;20041;-49
2022/12/13 01:08:46;;;;;;;37.55;21.63;;;-4.50;99.90;;;;;;7373792;19;20019;-47
2022/12/13 01:11:13;;;;;;;44.92;23.38;;;-4.50;99.90;;;;;;7368736;19;20022;-46
2022/12/13 01:13:40;;;;;;;43.53;24.27;;;-4.40;99.90;;;;;;7377493;19;20454;-45
2022/12/13 01:16:08;;;;;;;45.45;25.05;;;-4.40;99.90;;;;;;7374720;19;20014;-49
2022/12/13 01:18:35;;;;;;;46.97;26.08;;;-4.40;99.90;;;;;;7368903;19;20014;-50
2022/12/13 01:21:16;;;;;;;45.80;27.58;;;-4.30;99.90;;;;;;7357305;19;20369;-49
2022/12/13 01:23:43;;;;;;;42.83;25.63;;;-4.30;99.90;;;;;;7361101;19;21338;-50
2022/12/13 01:26:19;;;;;;;40.78;24.42;;;-4.30;99.90;;;;;;7375232;19;20010;-49
2022/12/13 01:28:47;;;;;;;45.63;23.77;;;-4.30;99.90;;;;;;7377205;19;20046;-51
2022/12/13 01:31:16;;;;;;;45.65;23.67;;;-4.30;99.90;;;;;;7377748;19;20025;-50
2022/12/13 01:33:45;;;;;;;40.90;23.83;;;-4.40;99.90;;;;;;7377054;19;20498;-49
2022/12/13 01:36:15;;;;;;;39.58;23.00;;;-4.50;99.90;;;;;;7376245;19;20018;-48
2022/12/13 01:38:42;;;;;;;36.97;21.88;;;-4.50;99.90;;;;;;7378414;19;20041;-49
2022/12/13 01:41:13;;;;;;;37.05;22.70;;;-4.60;99.90;;;;;;7371493;19;20014;-49
2022/12/13 01:43:39;;;;;;;39.20;22.35;;;-4.60;99.90;;;;;;7371481;19;20491;-51
2022/12/13 01:46:05;;;;;;;39.22;22.98;;;-4.60;99.90;;;;;;7376698;19;20112;-50
2022/12/13 01:48:38;;;;;;;40.03;25.00;;;-4.60;99.90;;;;;;7374544;19;20050;-48
2022/12/13 01:51:07;;;;;;;42.65;24.27;;;-4.50;99.90;;;;;;7372113;19;20857;-47
2022/12/13 01:53:38;;;;;;;37.92;23.45;;;-4.60;99.90;;;;;;7376828;19;20022;-51
2022/12/13 01:56:13;;;;;;;42.10;25.45;;;-4.60;99.90;;;;;;7369680;19;20018;-48
2022/12/13 01:58:40;;;;;;;40.20;22.33;;;-4.60;99.90;;;;;;7373930;19;20384;-47
2022/12/13 02:01:07;;;;;;;35.53;23.52;;;-4.60;99.90;;;;;;7373549;19;20042;-47
2022/12/13 02:03:34;;;;;;;37.63;23.40;;;-4.60;99.90;;;;;;7375363;19;20527;-51
2022/12/13 02:06:08;;;;;;;41.53;24.63;;;-4.60;99.90;;;;;;7361860;19;20498;-49
2022/12/13 02:08:43;;;;;;;44.85;23.83;;;-4.60;99.90;;;;;;7370055;19;20709;-47
2022/12/13 02:11:11;;;;;;;39.53;23.15;;;-4.60;99.90;;;;;;7364581;19;20022;-47
2022/12/13 02:13:38;;;;;;;38.22;23.35;;;-4.60;99.90;;;;;;7369632;19;20018;-49
2022/12/13 02:16:19;;;;;;;36.80;21.30;;;-4.60;99.90;;;;;;7369703;19;20991;-49
2022/12/13 02:19:05;;;;;;;35.42;22.55;;;-4.60;99.90;;;;;;7374612;19;20029;-52
2022/12/13 02:21:42;;;;;;;34.10;21.20;;;-4.60;99.90;;;;;;7375884;19;20019;-46
2022/12/13 02:24:40;;;;;;;37.20;23.95;;;-4.60;99.90;;;;;;7372081;19;20029;-50
2022/12/13 02:27:22;;;;;;;36.63;21.30;;;-4.60;99.90;;;;;;7374103;19;20248;-49
2022/12/13 02:30:23;;;;;;;42.17;23.65;;;-4.70;99.90;;;;;;7374751;19;20390;-47
2022/12/13 02:33:17;;;;;;;36.78;23.30;;;-4.60;99.90;;;;;;7373545;19;20018;-51
2022/12/13 02:35:50;;;;;;;36.75;22.92;;;-4.60;99.90;;;;;;7375208;19;20577;-51
2022/12/13 02:38:30;;;;;;;39.92;24.00;;;-4.60;99.90;;;;;;7370423;19;20880;-47
2022/12/13 02:41:37;;;;;;;40.78;23.02;;;-4.60;99.90;;;;;;7373783;19;20019;-51
2022/12/13 02:44:23;;;;;;;42.35;23.20;;;-4.70;99.90;;;;;;7365765;19;20503;-50
2022/12/13 02:47:00;;;;;;;40.13;23.63;;;-4.70;99.90;;;;;;7374129;19;20397;-48
2022/12/13 02:49:41;;;;;;;40.88;23.48;;;-4.70;99.90;;;;;;7370727;19;20035;-47
2022/12/13 02:52:10;;;;;;;34.33;20.67;;;-4.70;99.90;;;;;;7362488;19;20432;-49
2022/12/13 02:54:36;;;;;;;36.47;21.50;;;-4.80;99.90;;;;;;7367951;19;20022;-48
2022/12/13 02:57:03;;;;;;;35.67;21.15;;;-4.80;99.90;;;;;;7372092;19;20581;-50
2022/12/13 02:59:38;;;;;;;36.63;21.30;;;-4.80;99.90;;;;;;7375705;19;20513;-51
2022/12/13 03:02:49;;;;;;;37.35;21.30;;;-4.90;99.90;;;;;;7372174;19;20771;-50
2022/12/13 03:08:19;;;;;;;29.38;19.27;;;-5.00;99.90;;;;;;7370087;19;20078;-51
2022/12/13 03:11:10;;;;;;;32.00;20.38;;;-5.00;99.90;;;;;;7369187;19;20052;-46
2022/12/13 03:14:13;;;;;;;34.13;20.40;;;-5.00;99.90;;;;;;7374797;19;20455;-46
2022/12/13 03:16:43;;;;;;;33.92;20.50;;;-5.00;99.90;;;;;;7369692;19;20061;-46
2022/12/13 03:19:10;;;;;;;37.92;22.70;;;-4.90;99.90;;;;;;7372522;19;20124;-47
2022/12/13 03:21:46;;;;;;;36.35;22.70;;;-4.90;99.90;;;;;;7375376;19;20010;-46
2022/12/13 03:24:13;;;;;;;36.65;21.95;;;-5.00;99.90;;;;;;7374327;19;20672;-48
2022/12/13 03:26:40;;;;;;;36.17;21.23;;;-5.10;99.90;;;;;;7372090;19;20021;-45
2022/12/13 03:29:06;;;;;;;33.50;20.88;;;-5.10;99.90;;;;;;7372860;19;20014;-49
2022/12/13 03:31:33;;;;;;;37.92;22.70;;;-5.10;99.90;;;;;;7377019;19;20047;-49
2022/12/13 03:33:59;;;;;;;33.97;20.85;;;-5.10;99.90;;;;;;7372568;19;20038;-49
2022/12/13 03:36:26;;;;;;;32.67;19.85;;;-5.10;99.90;;;;;;7366041;19;20026;-51
2022/12/13 03:38:53;;;;;;;37.13;21.88;;;-5.10;99.90;;;;;;7362374;19;20485;-46
2022/12/13 03:41:30;;;;;;;35.10;21.40;;;-5.20;99.90;;;;;;7365168;19;20018;-48
2022/12/13 03:44:03;;;;;;;36.97;20.45;;;-5.20;99.90;;;;;;7363559;19;20459;-48
2022/12/13 03:46:30;;;;;;;39.28;22.00;;;-5.10;99.90;;;;;;7361361;19;20473;-47
2022/12/13 03:48:56;;;;;;;31.35;20.17;;;-5.20;99.90;;;;;;7360774;19;20017;-49
2022/12/13 03:51:22;;;;;;;34.00;21.90;;;-5.20;99.90;;;;;;7360693;19;20033;-47
2022/12/13 03:53:49;;;;;;;32.47;20.63;;;-5.20;99.90;;;;;;7361990;19;20735;-49
2022/12/13 03:56:15;;;;;;;36.80;22.10;;;-5.20;99.90;;;;;;7362693;19;20792;-50
2022/12/13 03:58:42;;;;;;;37.80;22.35;;;-5.20;99.90;;;;;;7363560;19;20573;-48
2022/12/13 04:01:14;;;;;;;36.25;21.73;;;-5.20;99.90;;;;;;7369542;19;20021;-51
2022/12/13 04:03:43;;;;;;;37.45;22.73;;;-5.20;99.90;;;;;;7369501;19;21357;-49
2022/12/13 04:06:10;;;;;;;37.67;22.77;;;-5.20;99.90;;;;;;7370546;19;20023;-51
2022/12/13 04:08:37;;;;;;;38.83;22.58;;;-5.20;99.90;;;;;;7370077;19;20018;-49
2022/12/13 04:13:52;;;;;;;40.17;22.23;;;-5.20;99.90;;;;;;7371161;19;20018;-49
2022/12/13 04:16:18;;;;;;;34.47;21.95;;;-5.10;99.90;;;;;;7367874;19;20078;-47
2022/12/13 04:18:45;;;;;;;38.42;23.20;;;-5.20;99.90;;;;;;7369867;19;20025;-49
2022/12/13 04:21:11;;;;;;;37.33;20.92;;;-5.10;99.90;;;;;;7371823;19;20053;-48
2022/12/13 04:23:40;;;;;;;37.10;21.45;;;-5.10;99.90;;;;;;7372698;19;20018;-50
2022/12/13 04:26:06;;;;;;;37.70;23.08;;;-5.20;99.90;;;;;;7368297;19;20023;-51
2022/12/13 04:28:33;;;;;;;35.60;23.40;;;-5.10;99.90;;;;;;7364344;19;20039;-50
2022/12/13 04:30:59;;;;;;;44.80;24.42;;;-5.10;99.90;;;;;;7376516;19;20034;-48
2022/12/13 04:33:25;;;;;;;36.88;22.88;;;-5.10;99.90;;;;;;7384963;19;20010;-51
2022/12/13 04:35:52;;;;;;;41.80;24.25;;;-5.20;99.90;;;;;;7384042;19;20497;-50
2022/12/13 04:38:18;;;;;;;36.47;23.98;;;-5.20;99.90;;;;;;7382897;19;20957;-52
2022/12/13 04:40:45;;;;;;;30.73;19.23;;;-5.20;99.90;;;;;;7382255;19;20026;-47
2022/12/13 04:43:11;;;;;;;37.75;22.10;;;-5.30;99.90;;;;;;7388385;19;20827;-51
2022/12/13 04:45:45;;;;;;;38.08;23.00;;;-5.20;99.90;;;;;;7381626;19;20521;-50
2022/12/13 04:48:12;;;;;;;32.83;21.63;;;-5.20;99.90;;;;;;7385671;19;20596;-52
2022/12/13 04:50:40;;;;;;;37.35;21.33;;;-5.20;99.90;;;;;;7386248;19;20026;-49
2022/12/13 04:53:06;;;;;;;37.63;24.20;;;-5.20;99.90;;;;;;7384402;19;20040;-47
2022/12/13 04:55:32;;;;;;;35.75;20.48;;;-5.30;99.90;;;;;;7386992;19;20501;-46
2022/12/13 04:57:58;;;;;;;36.08;22.23;;;-5.30;99.90;;;;;;7383398;19;20033;-46
2022/12/13 05:00:24;;;;;;;40.67;23.10;;;-5.30;99.90;;;;;;7380702;19;20022;-46
2022/12/13 05:02:51;;;;;;;47.95;24.85;;;-5.30;99.90;;;;;;7386229;19;20606;-47
2022/12/13 05:05:17;;;;;;;38.60;24.35;;;-5.30;99.90;;;;;;7384084;19;20078;-48
2022/12/13 05:07:45;;;;;;;38.70;23.58;;;-5.30;99.90;;;;;;7383897;19;20026;-48
2022/12/13 05:10:11;;;;;;;38.33;23.73;;;-5.30;99.90;;;;;;7387401;19;20010;-50
2022/12/13 05:12:37;;;;;;;43.72;23.15;;;-5.20;99.90;;;;;;7387987;19;20018;-50
2022/12/13 05:15:05;;;;;;;33.75;22.75;;;-5.20;99.90;;;;;;7385754;19;20028;-45
2022/12/13 05:17:32;;;;;;;44.28;25.02;;;-5.20;99.90;;;;;;7385644;19;20375;-48
2022/12/13 05:19:59;;;;;;;42.95;25.98;;;-5.20;99.90;;;;;;7375833;19;20110;-50
2022/12/13 05:22:26;;;;;;;40.08;24.20;;;-5.20;99.90;;;;;;7375396;19;20026;-50
2022/12/13 05:24:52;;;;;;;40.60;24.55;;;-5.20;99.90;;;;;;7379724;19;20024;-48
2022/12/13 05:27:19;;;;;;;42.70;24.67;;;-5.20;99.90;;;;;;7380454;19;20019;-47
2022/12/13 05:29:45;;;;;;;43.88;26.05;;;-5.20;99.90;;;;;;7383266;19;20117;-48
2022/12/13 05:32:12;;;;;;;40.60;24.88;;;-5.20;99.90;;;;;;7386923;19;20405;-50
2022/12/13 05:34:38;;;;;;;44.25;23.83;;;-5.20;99.90;;;;;;7384467;19;20013;-49
2022/12/13 05:37:05;;;;;;;40.22;23.30;;;-5.20;99.90;;;;;;7385415;19;20022;-50
2022/12/13 05:39:31;;;;;;;42.22;25.30;;;-5.20;99.90;;;;;;7379416;19;20029;-47
2022/12/13 05:41:58;;;;;;;41.65;24.60;;;-5.20;99.90;;;;;;7376535;19;20025;-50
2022/12/13 05:44:25;;;;;;;39.17;24.10;;;-5.20;99.90;;;;;;7366512;19;20021;-49
2022/12/13 05:46:51;;;;;;;44.45;25.33;;;-5.20;99.90;;;;;;7370467;19;20026;-48
2022/12/13 05:49:17;;;;;;;44.20;27.35;;;-5.20;99.90;;;;;;7370026;19;20025;-48
2022/12/13 05:51:44;;;;;;;46.60;26.75;;;-5.20;99.90;;;;;;7375457;19;20362;-47
2022/12/13 05:54:10;;;;;;;44.08;26.92;;;-5.20;99.90;;;;;;7377452;19;20490;-46
2022/12/13 05:56:42;;;;;;;;;;;-5.10;99.90;;;;;;7375323;19;20014;-51
2022/12/13 05:59:08;;;;;;;47.33;26.90;;;-5.10;99.90;;;;;;7371668;19;19958;-49
2022/12/13 06:01:35;;;;;;;46.10;26.75;;;-5.10;99.90;;;;;;7375386;19;20022;-48
2022/12/13 06:04:05;;;;;;;48.95;28.63;;;-5.20;99.90;;;;;;7376122;19;20014;-48
2022/12/13 06:06:33;;;;;;;54.83;29.35;;;-5.20;99.90;;;;;;7371360;19;20015;-50
2022/12/13 06:08:59;;;;;;;51.58;28.30;;;-5.20;99.90;;;;;;7370646;19;20019;-48
2022/12/13 06:11:27;;;;;;;48.10;28.70;;;-5.20;99.90;;;;;;7377444;19;20466;-50
2022/12/13 06:13:54;;;;;;;50.33;28.15;;;-5.20;99.90;;;;;;7377188;19;20019;-47
2022/12/13 06:16:21;;;;;;;50.45;27.65;;;-5.20;99.90;;;;;;7372133;19;20029;-46
2022/12/13 06:18:48;;;;;;;52.75;27.85;;;-5.20;99.90;;;;;;7369253;19;20026;-51
2022/12/13 06:21:14;;;;;;;46.22;26.98;;;-5.20;99.90;;;;;;7372864;19;20022;-50
2022/12/13 06:23:41;;;;;;;51.75;28.95;;;-5.20;99.90;;;;;;7373221;19;20015;-50
2022/12/13 06:26:07;;;;;;;53.63;28.38;;;-5.20;99.90;;;;;;7375529;19;20025;-48
2022/12/13 06:28:34;;;;;;;50.67;29.15;;;-5.20;99.90;;;;;;7368261;19;20466;-51
2022/12/13 06:31:03;;;;;;;58.35;30.13;;;-5.20;99.90;;;;;;7367390;19;20782;-50
2022/12/13 06:33:34;;;;;;;55.97;30.45;;;-5.20;99.90;;;;;;7370465;19;20486;-50
2022/12/13 06:36:01;;;;;;;51.22;28.27;;;-5.20;99.90;;;;;;7375572;19;20018;-48
2022/12/13 06:38:28;;;;;;;54.63;30.20;;;-5.30;99.90;;;;;;7373696;19;20366;-47
2022/12/13 06:41:12;;;;;;;53.40;28.73;;;-5.30;99.90;;;;;;7371215;19;20448;-46
2022/12/13 06:43:42;;;;;;;54.83;28.02;;;-5.30;99.90;;;;;;7375027;19;20510;-47
2022/12/13 06:46:09;;;;;;;55.00;31.40;;;-5.30;99.90;;;;;;7369581;19;20399;-51
2022/12/13 06:48:35;;;;;;;55.65;31.55;;;-5.30;99.90;;;;;;7372653;19;20038;-49
2022/12/13 06:51:03;;;;;;;57.53;30.35;;;-5.20;99.90;;;;;;7368612;19;20022;-51
2022/12/13 06:53:30;;;;;;;52.90;30.73;;;-5.20;99.90;;;;;;7371244;19;20022;-50
2022/12/13 06:55:56;;;;;;;54.28;28.35;;;-5.20;99.90;;;;;;7370631;19;20015;-51
2022/12/13 06:58:23;;;;;;;52.63;29.75;;;-5.20;99.90;;;;;;7374158;19;20106;-48
2022/12/13 07:01:03;;;;;;;53.03;28.73;;;-5.20;99.90;;;;;;7371812;19;20035;-48
2022/12/13 07:03:30;;;;;;;50.33;27.38;;;-5.20;99.90;;;;;;7365804;19;20035;-48
2022/12/13 07:06:05;;;;;;;50.38;27.55;;;-5.20;99.90;;;;;;7363422;19;20473;-47
2022/12/13 07:08:32;;;;;;;51.30;29.52;;;-5.20;99.90;;;;;;7373208;19;20367;-50
2022/12/13 07:11:01;;;;;;;50.55;28.67;;;-5.20;99.90;;;;;;7371811;19;20028;-50
2022/12/13 07:13:27;;;;;;;51.13;28.42;;;-5.20;99.90;;;;;;7374153;19;20022;-52
2022/12/13 07:15:59;;;;;;;54.67;30.10;;;-5.20;99.90;;;;;;7369060;19;20028;-52
2022/12/13 07:18:27;;;;;;;54.25;30.52;;;-5.20;99.90;;;;;;7373535;19;20494;-48
2022/12/13 07:20:53;;;;;;;50.42;29.08;;;-5.30;99.90;;;;;;7371513;19;20022;-47
2022/12/13 07:23:20;;;;;;;53.90;29.23;;;-5.30;99.90;;;;;;7366816;19;20017;-47
2022/12/13 07:25:53;;;;;;;48.17;29.52;;;-5.30;99.90;;;;;;7374327;19;20747;-49
2022/12/13 07:28:20;;;;;;;53.40;27.55;;;-5.30;99.90;;;;;;7367024;19;20514;-49
2022/12/13 07:30:48;;;;;;;49.65;30.80;;;-5.30;99.90;;;;;;7367409;19;20022;-47
2022/12/13 07:33:14;;;;;;;57.33;31.90;;;-5.30;99.90;;;;;;7363930;19;20014;-51
2022/12/13 07:35:44;;;;;;;59.05;31.65;;;-5.30;99.90;;;;;;7369241;19;20494;-51
2022/12/13 07:38:11;;;;;;;52.58;29.98;;;-5.30;99.90;;;;;;7369356;19;20026;-49
2022/12/13 07:40:39;;;;;;;64.60;34.17;;;-5.20;99.90;;;;;;7371238;19;20014;-48
2022/12/13 07:43:06;;;;;;;64.90;33.75;;;-5.20;99.90;;;;;;7368335;19;20493;-51
2022/12/13 07:45:33;;;;;;;61.38;33.83;;;-5.20;99.90;;;;;;7369895;19;20106;-47
2022/12/13 07:48:03;;;;;;;59.10;32.10;;;-5.20;99.90;;;;;;7373458;19;20415;-48
2022/12/13 07:50:31;;;;;;;60.90;31.52;;;-5.20;99.90;;;;;;7366617;19;20407;-49
2022/12/13 07:53:05;;;;;;;63.65;32.97;;;-5.10;99.90;;;;;;7373912;19;20030;-52
2022/12/13 07:55:32;;;;;;;63.45;33.63;;;-5.10;99.90;;;;;;7369921;19;20027;-49
2022/12/13 07:58:13;;;;;;;59.90;33.25;;;-5.10;99.90;;;;;;7371235;19;20015;-50
2022/12/13 08:00:42;;;;;;;61.45;31.80;;;-5.00;99.90;;;;;;7372836;19;20513;-50
2022/12/13 08:03:08;;;;;;;60.40;32.70;;;-5.00;99.90;;;;;;7361393;19;20049;-47
2022/12/13 08:05:36;;;;;;;60.03;33.08;;;-5.00;99.90;;;;;;7365241;19;20026;-51
2022/12/13 08:08:04;;;;;;;66.20;33.78;;;-5.00;99.90;;;;;;7367662;19;20489;-53
2022/12/13 08:10:31;;;;;;;62.67;32.60;;;-5.00;99.90;;;;;;7371511;19;20011;-50
2022/12/13 08:13:01;;;;;;;56.83;32.72;;;-4.90;99.90;;;;;;7371538;19;20410;-51
2022/12/13 08:15:28;;;;;;;60.97;32.72;;;-4.80;99.90;;;;;;7371674;19;20018;-52
2022/12/13 08:17:55;;;;;;;58.47;33.42;;;-4.80;99.90;;;;;;7370135;19;20494;-51
2022/12/13 08:20:22;;;;;;;62.30;33.67;;;-4.70;99.90;;;;;;7367892;19;20014;-52
2022/12/13 08:22:56;;;;;;;62.08;33.50;;;-4.60;99.90;;;;;;7369313;19;20574;-52
2022/12/13 08:25:23;;;;;;;61.05;32.05;;;-4.50;99.90;;;;;;7370003;19;20141;-49
2022/12/13 08:27:49;;;;;;;58.72;32.50;;;-4.50;99.90;;;;;;7367112;19;20015;-53
2022/12/13 08:30:16;;;;;;;60.88;31.40;;;-4.30;99.90;;;;;;7368663;19;20692;-51
2022/12/13 08:32:42;;;;;;;56.92;32.72;;;-4.20;99.90;;;;;;7366275;19;20019;-52
2022/12/13 08:35:09;;;;;;;55.10;32.00;;;-3.90;99.90;;;;;;7371166;19;20025;-52
2022/12/13 08:37:53;;;;;;;60.25;33.65;;;-3.50;99.90;;;;;;7370421;19;20077;-51
2022/12/13 08:40:19;;;;;;;53.47;30.80;;;-3.30;99.90;;;;;;7367409;19;20588;-48
2022/12/13 08:42:46;;;;;;;50.17;29.17;;;-3.20;99.90;;;;;;7372123;19;20425;-51
2022/12/13 08:45:14;;;;;;;48.33;29.00;;;-3.10;99.90;;;;;;7366769;19;20018;-51
2022/12/13 08:47:41;;;;;;;49.40;29.90;;;-3.00;99.90;;;;;;7371987;19;20048;-46
2022/12/13 08:50:08;;;;;;;53.17;31.73;;;-2.80;99.90;;;;;;7368264;19;20454;-50
2022/12/13 08:52:35;;;;;;;48.20;28.13;;;-2.70;99.90;;;;;;7361090;19;20610;-51
2022/12/13 08:55:04;;;;;;;51.05;29.98;;;-2.60;99.90;;;;;;7364136;19;20574;-53
2022/12/13 08:57:35;;;;;;;54.80;29.95;;;-2.60;99.90;;;;;;7362255;19;20369;-51
2022/12/13 09:00:04;;;;;;;54.42;30.15;;;-2.40;99.90;;;;;;7360088;19;20032;-51
2022/12/13 09:02:30;;;;;;;52.55;30.40;;;-2.40;99.90;;;;;;7358641;19;21180;-52
2022/12/13 09:04:56;;;;;;;51.63;28.48;;;-2.30;99.90;;;;;;7364670;19;20455;-53
2022/12/13 09:07:22;;;;;;;54.05;29.60;;;-2.30;99.90;;;;;;7359041;19;20489;-57
2022/12/13 09:09:49;;;;;;;49.15;29.48;;;-2.30;99.90;;;;;;7364797;19;20121;-56
2022/12/13 09:12:18;;;;;;;48.25;27.90;;;-2.30;99.90;;;;;;7359512;19;20022;-52
2022/12/13 09:14:45;;;;;;;50.45;28.63;;;-2.30;99.90;;;;;;7359400;19;20035;-50
2022/12/13 09:17:15;;;;;;;48.58;28.10;;;-2.40;99.90;;;;;;7375689;19;20018;-57
2022/12/13 09:19:43;;;;;;;46.53;29.20;;;-2.40;99.90;;;;;;7375725;19;20026;-52
2022/12/13 09:22:11;;;;;;;45.85;30.67;;;-2.30;99.90;;;;;;7374911;19;20015;-49
2022/12/13 09:24:38;;;;;;;51.30;28.67;;;-2.40;99.90;;;;;;7379837;19;20119;-52
2022/12/13 09:27:04;;;;;;;46.45;30.60;;;-2.20;99.90;;;;;;7375735;19;20047;-51
2022/12/13 09:29:33;;;;;;;49.08;30.52;;;-2.30;99.90;;;;;;7370079;19;20066;-51
2022/12/13 09:32:00;;;;;;;47.28;29.70;;;-2.20;99.90;;;;;;7369643;19;20023;-52
2022/12/13 09:34:26;;;;;;;50.05;29.52;;;-2.10;99.90;;;;;;7374781;19;20529;-56
2022/12/13 09:36:53;;;;;;;50.38;31.05;;;-2.00;99.90;;;;;;7374374;19;20019;-55
2022/12/13 09:39:19;;;;;;;49.08;29.10;;;-1.90;99.90;;;;;;7375371;19;20022;-55
2022/12/13 09:41:49;;;;;;;48.25;30.20;;;-1.80;99.90;;;;;;7373972;19;20041;-56
2022/12/13 09:44:34;;;;;;;53.47;31.27;;;-1.80;99.90;;;;;;7372729;19;20044;-50
2022/12/13 09:47:04;;;;;;;51.53;30.55;;;-1.90;99.90;;;;;;7370224;19;20018;-50
2022/12/13 09:49:35;;;;;;;47.33;29.02;;;-1.90;99.90;;;;;;7362144;19;20088;-47
2022/12/13 09:52:11;;;;;;;52.92;30.40;;;-2.00;99.90;;;;;;7369093;19;20501;-49
2022/12/13 09:54:38;;;;;;;49.97;30.88;;;-2.00;99.90;;;;;;7369630;19;20328;-51
2022/12/13 09:57:20;;;;;;;48.08;29.08;;;-1.90;99.90;;;;;;7364476;19;20037;-51
2022/12/13 09:59:46;;;;;;;48.55;31.95;;;-1.60;99.90;;;;;;7368850;19;20451;-52
2022/12/13 10:02:27;;;;;;;49.47;30.10;;;-1.40;99.90;;;;;;7372268;19;20140;-52
2022/12/13 10:05:28;;;;;;;47.75;30.50;;;-1.40;99.90;;;;;;7376971;19;20022;-53
2022/12/13 10:07:58;;;;;;;52.45;31.23;;;-1.20;99.90;;;;;;7374227;19;20056;-51
2022/12/13 10:10:30;;;;;;;52.25;30.88;;;-1.40;99.90;;;;;;7376109;19;20018;-52
2022/12/13 10:13:22;;;;;;;42.85;28.30;;;-1.30;99.90;;;;;;7373835;19;20054;-53
2022/12/13 10:16:00;;;;;;;47.25;28.83;;;-1.20;99.90;;;;;;7378972;19;20019;-53
2022/12/13 10:18:37;;;;;;;47.40;29.23;;;-1.00;99.90;;;;;;7374394;19;20082;-53
2022/12/13 10:21:12;;;;;;;47.85;29.67;;;-0.50;99.90;;;;;;7370014;19;20029;-55
2022/12/13 10:23:39;;;;;;;46.15;29.63;;;-0.20;99.90;;;;;;7367875;19;20346;-55
2022/12/13 10:26:11;;;;;;;45.22;28.05;;;0.10;99.90;;;;;;7366045;19;20015;-54
2022/12/13 10:28:40;;;;;;;42.63;28.23;;;0.30;99.90;;;;;;7363116;19;20018;-52
2022/12/13 10:31:07;;;;;;;48.50;28.20;;;0.30;99.90;;;;;;7361068;19;20483;-51
2022/12/13 10:33:39;;;;;;;42.10;29.08;;;0.40;99.90;;;;;;7366075;19;20446;-51
2022/12/13 10:36:05;;;;;;;;;;;0.40;99.90;;;;;;7362308;19;20089;-52
2022/12/13 10:38:39;;;;;;;41.58;26.60;;;0.40;99.90;;;;;;7369856;19;19930;-52
2022/12/13 10:41:29;;;;;;;45.22;29.15;;;0.40;99.90;;;;;;7362676;19;20482;-53
2022/12/13 10:44:16;;;;;;;43.50;28.17;;;0.80;99.90;;;;;;7365243;19;20268;-49
2022/12/13 10:46:49;;;;;;;40.83;27.33;;;0.50;99.90;;;;;;7370210;19;20176;-53
2022/12/13 10:49:25;;;;;;;41.58;26.63;;;0.40;99.90;;;;;;7368195;19;20018;-50
2022/12/13 10:51:53;;;;;;;46.95;27.45;;;0.50;99.90;;;;;;7370538;19;20102;-52
2022/12/13 10:54:30;;;;;;;39.10;27.85;;;0.60;99.90;;;;;;7367707;19;20106;-50
2022/12/13 10:57:02;;;;;;;38.95;27.92;;;0.60;99.90;;;;;;7371817;19;20034;-49
2022/12/13 10:59:36;;;;;;;45.10;28.70;;;0.90;99.90;;;;;;7369149;19;20741;-52
2022/12/13 11:02:29;;;;;;;38.40;27.45;;;1.50;99.90;;;;;;7372214;19;20033;-52
2022/12/13 11:04:57;;;;;;;40.80;28.23;;;1.60;99.90;;;;;;7368521;19;20892;-52
2022/12/13 11:07:26;;;;;;;42.80;28.13;;;1.30;99.90;;;;;;7369189;19;20025;-51
2022/12/13 11:09:52;;;;;;;36.25;27.92;;;1.30;99.90;;;;;;7368004;19;20022;-50
2022/12/13 11:12:26;;;;;;;39.55;26.10;;;1.30;99.90;;;;;;7368560;19;20034;-49
2022/12/13 11:15:02;;;;;;;40.05;26.90;;;1.20;99.90;;;;;;7364188;19;20635;-49
2022/12/13 11:17:32;;;;;;;42.90;27.83;;;1.10;99.90;;;;;;7363969;19;20021;-49
2022/12/13 11:20:04;;;;;;;41.25;27.38;;;1.20;99.90;;;;;;7366933;19;20089;-52
2022/12/13 11:22:39;;;;;;;45.35;28.58;;;1.20;99.90;;;;;;7369967;19;20502;-52
2022/12/13 11:25:17;;;;;;;40.00;27.30;;;1.00;99.90;;;;;;7368799;19;20652;-55
2022/12/13 11:28:01;;;;;;;45.80;28.08;;;1.10;99.90;;;;;;7368563;19;20023;-55
2022/12/13 11:30:59;;;;;;;40.42;27.55;;;0.70;99.90;;;;;;7367056;19;20026;-56
2022/12/13 11:33:55;;;;;;;45.10;27.42;;;0.60;99.90;;;;;;7369205;19;20902;-56
2022/12/13 11:36:50;;;;;;;41.33;28.65;;;0.60;99.90;;;;;;7369844;19;20393;-52
2022/12/13 11:39:32;;;;;;;43.28;27.50;;;0.40;99.90;;;;;;7365612;19;20015;-54
2022/12/13 11:42:09;;;;;;;43.60;28.48;;;0.30;99.90;;;;;;7368904;19;20042;-52
2022/12/13 11:44:51;;;;;;;42.53;27.17;;;0.30;99.90;;;;;;7362270;19;20014;-54
2022/12/13 11:47:24;;;;;;;43.53;28.73;;;0.40;99.90;;;;;;7371077;19;20474;-53
2022/12/13 11:49:51;;;;;;;40.58;28.50;;;0.40;99.90;;;;;;7366961;19;20498;-54
2022/12/13 11:52:24;;;;;;;40.15;28.00;;;0.40;99.90;;;;;;7371802;19;20506;-53
2022/12/13 11:55:05;;;;;;;42.17;27.80;;;0.60;99.90;;;;;;7363670;19;20018;-55
2022/12/13 11:57:45;;;;;;;41.42;29.05;;;0.60;99.90;;;;;;7359690;19;20569;-56
2022/12/13 12:00:33;;;;;;;44.05;28.83;;;0.60;99.90;;;;;;7357416;19;20251;-54
2022/12/13 12:03:27;;;;;;;42.17;29.35;;;0.50;99.90;;;;;;7363204;19;20018;-52
2022/12/13 12:06:00;;;;;;;35.97;26.65;;;0.80;99.90;;;;;;7367179;19;20399;-54
2022/12/13 12:08:41;;;;;;;41.38;26.67;;;1.00;99.90;;;;;;7367264;19;20589;-54
2022/12/13 12:11:37;;;;;;;38.22;26.30;;;1.70;99.90;;;;;;7365763;19;20022;-56
2022/12/13 12:14:15;;;;;;;35.40;25.85;;;2.30;99.90;;;;;;7366513;19;20021;-54
2022/12/13 12:16:58;;;;;;;36.78;26.25;;;2.50;99.90;;;;;;7370858;19;20037;-55
2022/12/13 12:19:30;;;;;;;31.83;24.23;;;2.60;99.90;;;;;;7366055;19;20470;-54
2022/12/13 12:22:17;;;;;;;38.42;27.20;;;2.70;99.90;;;;;;7369672;19;20600;-54
2022/12/13 12:25:16;;;;;;;37.50;26.25;;;3.00;99.90;;;;;;7371181;19;20053;-57
2022/12/13 12:28:05;;;;;;;33.22;25.35;;;3.30;99.90;;;;;;7362694;19;20018;-55
2022/12/13 12:30:52;;;;;;;34.78;25.23;;;3.40;99.90;;;;;;7355203;19;20014;-54
2022/12/13 12:33:40;;;;;;;36.65;25.20;;;3.40;99.90;;;;;;7361505;19;20017;-55
2022/12/13 12:36:18;;;;;;;38.35;26.23;;;3.10;99.90;;;;;;7358932;19;20378;-55
2022/12/13 12:38:54;;;;;;;32.72;24.67;;;2.90;99.90;;;;;;7364396;19;20014;-53
2022/12/13 12:42:14;;;;;;;33.70;24.38;;;2.60;99.90;;;;;;7365263;19;20518;-56
2022/12/13 12:44:43;;;;;;;35.78;25.40;;;2.40;99.90;;;;;;7360351;19;20137;-56
2022/12/13 12:47:31;;;;;;;38.30;26.23;;;2.40;99.90;;;;;;7368245;19;20026;-56
2022/12/13 12:50:15;;;;;;;33.97;25.67;;;2.30;99.90;;;;;;7369271;19;20019;-57
2022/12/13 12:52:53;;;;;;;31.65;23.83;;;2.30;99.90;;;;;;7374765;19;20010;-57
2022/12/13 12:55:23;;;;;;;35.40;25.50;;;2.20;99.90;;;;;;7366421;19;20033;-57
2022/12/13 12:58:03;;;;;;;34.67;23.23;;;2.30;99.90;;;;;;7373612;19;20021;-55
2022/12/13 13:00:46;;;;;;;36.45;25.90;;;2.50;99.90;;;;;;7378601;19;20627;-57